createdAt,value
2022-08-29T00:00:17.840Z,1.50
2022-08-29T00:02:47.684Z,1.43
2022-08-29T00:05:16.191Z,1.70
2022-08-29T00:07:45.818Z,1.30
2022-08-29T00:10:14.651Z,1.47
2022-08-29T00:12:43.047Z,1.43
2022-08-29T00:15:14.020Z,1.60
2022-08-29T00:17:42.265Z,1.70
2022-08-29T00:20:12.570Z,1.37
2022-08-29T00:22:40.499Z,1.43
2022-08-29T00:25:11.983Z,1.23
2022-08-29T00:27:39.961Z,1.60
2022-08-29T00:30:13.913Z,1.50
2022-08-29T00:32:42.219Z,1.43
2022-08-29T00:35:12.364Z,1.60
2022-08-29T00:37:40.277Z,1.50
2022-08-29T00:40:15.957Z,1.23
2022-08-29T00:42:44.194Z,1.50
2022-08-29T00:45:14.242Z,1.43
2022-08-29T00:47:47.793Z,1.80
2022-08-29T00:50:23.607Z,1.40
2022-08-29T00:52:51.757Z,1.73
2022-08-29T00:55:23.977Z,1.80
2022-08-29T00:57:58.105Z,1.30
2022-08-29T01:00:27.708Z,1.70
2022-08-29T01:02:56.017Z,1.67
2022-08-29T01:05:25.984Z,1.60
2022-08-29T01:07:54.086Z,1.37
2022-08-29T01:10:49.597Z,1.17
2022-08-29T01:13:17.644Z,1.40
2022-08-29T01:15:47.618Z,1.40
2022-08-29T01:18:16.875Z,1.50
2022-08-29T01:20:56.965Z,1.67
2022-08-29T01:23:32.629Z,1.80
2022-08-29T01:26:03.885Z,1.57
2022-08-29T01:28:34.319Z,1.67
2022-08-29T01:31:05.491Z,1.73
2022-08-29T01:33:40.031Z,1.80
2022-08-29T01:36:11.061Z,1.73
2022-08-29T01:38:39.939Z,1.40
2022-08-29T01:41:10.907Z,1.73
2022-08-29T01:43:44.391Z,1.60
2022-08-29T01:46:14.842Z,1.90
2022-08-29T01:48:45.375Z,1.50
2022-08-29T01:51:13.755Z,1.73
2022-08-29T01:53:42.832Z,1.73
2022-08-29T01:56:14.615Z,1.63
2022-08-29T01:58:43.169Z,1.73
2022-08-29T02:01:12.968Z,1.83
2022-08-29T02:03:40.896Z,1.80
2022-08-29T02:06:09.930Z,1.90
2022-08-29T02:08:38.532Z,1.83
2022-08-29T02:11:09.992Z,1.80
2022-08-29T02:13:40.654Z,1.70
2022-08-29T02:16:09.340Z,1.90
2022-08-29T02:18:37.362Z,1.70
2022-08-29T02:21:05.949Z,2.00
2022-08-29T02:23:35.696Z,1.83
2022-08-29T02:26:04.794Z,1.80
2022-08-29T02:28:33.542Z,1.60
2022-08-29T02:31:03.179Z,1.97
2022-08-29T02:33:31.339Z,1.50
2022-08-29T02:36:00.698Z,1.70
2022-08-29T02:38:29.293Z,1.80
2022-08-29T02:40:57.490Z,1.70
2022-08-29T02:43:26.192Z,1.63
2022-08-29T02:45:54.414Z,2.13
2022-08-29T02:48:23.855Z,1.90
2022-08-29T02:50:54.594Z,1.90
2022-08-29T02:53:24.459Z,1.90
2022-08-29T02:55:53.375Z,1.93
2022-08-29T02:58:22.135Z,1.80
2022-08-29T03:00:50.338Z,2.07
2022-08-29T03:03:19.574Z,1.97
2022-08-29T03:05:48.984Z,2.10
2022-08-29T03:08:18.766Z,2.10
2022-08-29T03:10:46.669Z,2.13
2022-08-29T03:13:14.623Z,1.93
2022-08-29T03:15:42.519Z,2.00
2022-08-29T03:18:10.682Z,1.90
2022-08-29T03:20:39.635Z,1.90
2022-08-29T03:23:09.916Z,2.37
2022-08-29T03:25:38.249Z,2.13
2022-08-29T03:28:06.135Z,2.40
2022-08-29T03:30:34.273Z,2.07
2022-08-29T03:33:02.458Z,2.20
2022-08-29T03:35:30.344Z,2.50
2022-08-29T03:37:58.448Z,2.10
2022-08-29T03:40:27.958Z,1.90
2022-08-29T03:42:56.545Z,2.07
2022-08-29T03:45:25.477Z,2.13
2022-08-29T03:47:53.881Z,2.37
2022-08-29T03:50:24.418Z,2.60
2022-08-29T03:52:52.811Z,2.33
2022-08-29T03:55:21.292Z,2.10
2022-08-29T03:57:50.526Z,2.20
2022-08-29T04:00:20.116Z,2.53
2022-08-29T04:02:49.324Z,2.87
2022-08-29T04:05:18.918Z,2.40
2022-08-29T04:07:49.797Z,2.40
2022-08-29T04:10:22.024Z,2.17
2022-08-29T04:12:54.568Z,2.33
2022-08-29T04:15:23.858Z,1.83
2022-08-29T04:17:54.331Z,2.20
2022-08-29T04:20:25.424Z,2.27
2022-08-29T04:22:55.528Z,2.53
2022-08-29T04:25:24.842Z,2.53
2022-08-29T04:27:55.270Z,2.27
2022-08-29T04:30:25.042Z,2.57
2022-08-29T04:32:53.077Z,2.37
2022-08-29T04:35:21.439Z,2.27
2022-08-29T04:37:49.570Z,2.70
2022-08-29T04:40:20.006Z,2.80
2022-08-29T04:42:48.163Z,2.40
2022-08-29T04:45:20.953Z,2.47
2022-08-29T04:47:48.810Z,2.77
2022-08-29T04:50:20.116Z,2.70
2022-08-29T04:52:48.776Z,2.73
2022-08-29T04:55:21.533Z,2.43
2022-08-29T04:57:52.122Z,3.20
2022-08-29T05:00:24.145Z,2.50
2022-08-29T05:02:52.165Z,3.03
2022-08-29T05:05:20.242Z,2.37
2022-08-29T05:07:48.256Z,2.67
2022-08-29T05:10:18.348Z,3.20
2022-08-29T05:12:46.898Z,2.70
2022-08-29T05:15:16.678Z,2.67
2022-08-29T05:17:46.002Z,2.60
2022-08-29T05:20:14.447Z,2.73
2022-08-29T05:22:43.059Z,2.47
2022-08-29T05:25:17.953Z,2.73
2022-08-29T05:27:46.823Z,2.93
2022-08-29T05:30:16.386Z,2.70
2022-08-29T05:32:58.603Z,3.03
2022-08-29T05:35:26.774Z,2.97
2022-08-29T05:37:54.633Z,2.90
2022-08-29T05:40:22.598Z,2.70
2022-08-29T05:42:50.501Z,3.23
2022-08-29T05:45:18.439Z,2.73
2022-08-29T05:47:46.810Z,2.73
2022-08-29T05:50:17.014Z,3.30
2022-08-29T05:52:45.407Z,3.00
2022-08-29T05:55:13.269Z,3.10
2022-08-29T05:57:41.255Z,3.10
2022-08-29T06:00:10.361Z,3.13
2022-08-29T06:02:38.211Z,3.17
2022-08-29T06:05:06.772Z,3.03
2022-08-29T06:07:38.412Z,3.20
2022-08-29T06:10:08.878Z,3.20
2022-08-29T06:12:37.575Z,3.23
2022-08-29T06:15:06.525Z,3.00
2022-08-29T06:17:35.506Z,3.00
2022-08-29T06:20:03.945Z,3.57
2022-08-29T06:22:31.823Z,3.23
2022-08-29T06:25:08.615Z,3.57
2022-08-29T06:27:48.863Z,3.47
2022-08-29T06:30:16.967Z,3.30
2022-08-29T06:32:44.840Z,3.17
2022-08-29T06:35:12.712Z,3.00
2022-08-29T06:37:42.449Z,3.35
2022-08-29T06:40:13.001Z,3.43
2022-08-29T06:42:40.905Z,2.87
2022-08-29T06:45:10.022Z,3.37
2022-08-29T06:47:37.894Z,3.13
2022-08-29T06:50:06.795Z,3.50
2022-08-29T06:52:35.574Z,2.70
2022-08-29T06:55:03.665Z,3.03
2022-08-29T06:57:33.459Z,2.80
2022-08-29T07:00:01.647Z,2.80
2022-08-29T07:02:52.394Z,2.83
2022-08-29T07:05:21.797Z,2.70
2022-08-29T07:07:49.822Z,2.80
2022-08-29T07:10:22.289Z,2.57
2022-08-29T07:12:52.352Z,3.00
2022-08-29T07:15:21.023Z,2.40
2022-08-29T07:17:49.670Z,2.70
2022-08-29T07:20:18.705Z,3.90
2022-08-29T07:22:51.093Z,2.50
2022-08-29T07:25:21.018Z,2.27
2022-08-29T07:27:52.091Z,2.70
2022-08-29T07:30:21.673Z,2.23
2022-08-29T07:32:49.552Z,2.30
2022-08-29T07:35:29.509Z,2.30
2022-08-29T07:37:59.136Z,4.67
2022-08-29T07:40:27.122Z,3.13
2022-08-29T07:42:56.417Z,3.03
2022-08-29T07:45:24.402Z,3.13
2022-08-29T07:47:52.983Z,2.67
2022-08-29T07:50:21.726Z,2.80
2022-08-29T07:52:49.823Z,2.40
2022-08-29T07:55:17.851Z,2.60
2022-08-29T07:57:46.537Z,2.47
2022-08-29T08:00:16.477Z,2.63
2022-08-29T08:02:44.629Z,2.20
2022-08-29T08:05:12.550Z,2.37
2022-08-29T08:07:41.352Z,2.63
2022-08-29T08:10:10.666Z,2.17
2022-08-29T08:12:38.902Z,2.23
2022-08-29T08:15:08.367Z,2.60
2022-08-29T08:17:40.933Z,2.50
2022-08-29T08:20:14.104Z,3.07
2022-08-29T08:22:45.153Z,2.80
2022-08-29T08:25:17.223Z,2.60
2022-08-29T08:27:47.211Z,2.90
2022-08-29T08:30:15.835Z,2.73
2022-08-29T08:32:48.712Z,2.30
2022-08-29T08:35:22.538Z,2.80
2022-08-29T08:37:53.461Z,2.27
2022-08-29T08:40:26.802Z,2.17
2022-08-29T08:43:00.876Z,2.30
2022-08-29T08:45:35.368Z,2.37
2022-08-29T08:48:11.265Z,2.50
2022-08-29T08:50:45.550Z,2.30
2022-08-29T08:53:19.953Z,2.40
2022-08-29T08:55:51.106Z,2.07
2022-08-29T08:58:32.808Z,2.70
2022-08-29T09:01:04.889Z,2.20
2022-08-29T09:06:53.418Z,2.30
2022-08-29T09:09:31.659Z,2.13
2022-08-29T09:12:14.061Z,2.57
2022-08-29T09:14:54.417Z,2.10
2022-08-29T09:17:31.397Z,2.10
2022-08-29T09:20:10.321Z,1.90
2022-08-29T09:22:42.089Z,1.93
2022-08-29T09:25:12.605Z,1.77
2022-08-29T09:27:40.915Z,2.10
2022-08-29T09:30:16.087Z,1.90
2022-08-29T09:32:57.089Z,2.10
2022-08-29T09:35:29.424Z,3.63
2022-08-29T09:38:03.170Z,2.60
2022-08-29T09:40:51.552Z,2.00
2022-08-29T09:43:24.063Z,1.90
2022-08-29T09:46:17.896Z,1.83
2022-08-29T09:48:49.402Z,2.00
2022-08-29T09:51:25.461Z,2.03
2022-08-29T09:54:14.046Z,2.20
2022-08-29T09:56:56.937Z,2.03
2022-08-29T09:59:35.829Z,1.87
2022-08-29T10:02:22.774Z,2.00
2022-08-29T10:04:53.903Z,1.53
2022-08-29T10:07:26.550Z,1.73
2022-08-29T10:10:02.677Z,1.70
2022-08-29T10:12:42.699Z,1.90
2022-08-29T10:15:33.621Z,1.80
2022-08-29T10:18:25.309Z,1.70
2022-08-29T10:21:14.181Z,1.60
2022-08-29T10:24:03.614Z,1.52
2022-08-29T10:26:46.195Z,1.40
2022-08-29T10:29:31.618Z,1.40
2022-08-29T10:32:15.696Z,1.53
2022-08-29T10:35:00.431Z,1.70
2022-08-29T10:37:35.417Z,1.90
2022-08-29T10:40:09.763Z,1.83
2022-08-29T10:42:42.108Z,1.60
2022-08-29T10:45:18.399Z,1.73
2022-08-29T10:47:54.159Z,1.73
2022-08-29T10:50:44.558Z,1.50
2022-08-29T10:53:18.571Z,2.10
2022-08-29T10:55:54.608Z,1.70
2022-08-29T10:58:35.594Z,1.93
2022-08-29T11:01:11.580Z,1.70
2022-08-29T11:03:48.898Z,1.80
2022-08-29T11:06:22.304Z,2.00
2022-08-29T11:08:57.592Z,1.80
2022-08-29T11:11:26.627Z,1.80
2022-08-29T11:14:05.363Z,1.70
2022-08-29T11:16:38.994Z,1.27
2022-08-29T11:19:13.788Z,1.50
2022-08-29T11:21:47.764Z,1.83
2022-08-29T11:24:19.523Z,1.65
2022-08-29T11:26:59.630Z,1.63
2022-08-29T11:29:41.282Z,2.00
2022-08-29T11:32:19.482Z,2.43
2022-08-29T11:35:05.215Z,1.70
2022-08-29T11:38:05.842Z,1.60
2022-08-29T11:43:46.574Z,1.77
2022-08-29T11:46:29.094Z,1.63
2022-08-29T11:49:38.858Z,1.90
2022-08-29T11:52:29.866Z,1.53
2022-08-29T11:55:33.229Z,1.70
2022-08-29T11:58:11.854Z,1.83
2022-08-29T12:00:53.146Z,2.13
2022-08-29T12:04:02.457Z,2.20
2022-08-29T12:07:01.919Z,1.60
2022-08-29T12:09:56.213Z,1.50
2022-08-29T12:12:47.822Z,1.70
2022-08-29T12:15:59.510Z,2.10
2022-08-29T12:18:58.354Z,1.77
2022-08-29T12:22:08.489Z,1.83
2022-08-29T12:24:57.474Z,2.60
2022-08-29T12:28:03.933Z,2.33
2022-08-29T12:30:41.043Z,2.90
2022-08-29T12:33:26.493Z,2.10
2022-08-29T12:36:27.248Z,1.85
2022-08-29T12:39:12.765Z,1.70
2022-08-29T12:42:19.056Z,1.80
2022-08-29T12:44:50.812Z,1.77
2022-08-29T12:47:26.332Z,1.60
2022-08-29T12:50:03.037Z,1.88
2022-08-29T12:52:35.766Z,2.20
2022-08-29T12:58:10.725Z,2.22
2022-08-29T13:00:43.616Z,1.75
2022-08-29T13:03:22.306Z,1.83
2022-08-29T13:05:54.782Z,1.90
2022-08-29T13:08:34.099Z,1.60
2022-08-29T13:11:07.869Z,1.40
2022-08-29T13:13:42.256Z,1.90
2022-08-29T13:16:30.442Z,1.67
2022-08-29T13:19:10.932Z,1.60
2022-08-29T13:21:45.875Z,1.60
2022-08-29T13:24:21.762Z,1.55
2022-08-29T13:27:03.137Z,1.30
2022-08-29T13:29:46.145Z,1.23
2022-08-29T13:32:29.535Z,2.00
2022-08-29T13:35:06.964Z,1.58
2022-08-29T13:37:41.029Z,1.42
2022-08-29T13:40:35.292Z,1.60
2022-08-29T13:43:08.278Z,1.70
2022-08-29T13:45:42.821Z,1.40
2022-08-29T13:48:27.299Z,1.67
2022-08-29T13:51:06.702Z,2.03
2022-08-29T13:53:35.344Z,1.50
2022-08-29T13:56:04.162Z,1.73
2022-08-29T13:58:33.101Z,1.58
2022-08-29T14:01:29.310Z,1.52
2022-08-29T14:03:50.375Z,1.77
2022-08-29T14:06:18.642Z,1.45
2022-08-29T14:08:46.610Z,1.47
2022-08-29T14:11:24.544Z,1.52
2022-08-29T14:13:57.793Z,1.42
2022-08-29T14:16:33.217Z,1.60
2022-08-29T14:19:03.238Z,5.37
2022-08-29T14:21:39.768Z,1.83
2022-08-29T14:24:18.031Z,1.70
2022-08-29T14:26:47.050Z,2.55
2022-08-29T14:29:29.959Z,1.50
2022-08-29T14:32:06.442Z,1.52
2022-08-29T14:34:34.980Z,1.70
2022-08-29T14:37:08.147Z,1.52
2022-08-29T14:39:48.506Z,1.33
2022-08-29T14:42:20.493Z,1.73
2022-08-29T14:44:54.571Z,1.70
2022-08-29T14:47:28.612Z,1.67
2022-08-29T14:50:02.499Z,1.60
2022-08-29T14:52:38.590Z,1.42
2022-08-29T14:55:16.041Z,1.50
2022-08-29T14:57:45.498Z,1.73
2022-08-29T15:00:26.205Z,2.28
2022-08-29T15:03:01.092Z,1.90
2022-08-29T15:05:35.503Z,1.70
2022-08-29T15:08:15.750Z,2.53
2022-08-29T15:10:51.550Z,1.67
2022-08-29T15:13:32.396Z,1.70
2022-08-29T15:16:08.862Z,1.75
2022-08-29T15:19:24.836Z,1.55
2022-08-29T15:21:56.058Z,1.95
2022-08-29T15:24:29.805Z,1.97
2022-08-29T15:27:13.686Z,2.05
2022-08-29T15:30:07.111Z,2.58
2022-08-29T15:32:53.012Z,2.10
2022-08-29T15:35:30.131Z,2.20
2022-08-29T15:38:05.312Z,1.92
2022-08-29T15:40:35.582Z,2.08
2022-08-29T15:43:11.579Z,2.30
2022-08-29T15:46:11.716Z,2.40
2022-08-29T15:48:40.614Z,2.25
2022-08-29T15:51:19.893Z,2.47
2022-08-29T15:53:57.833Z,2.42
2022-08-29T15:56:36.513Z,2.53
2022-08-29T15:59:05.877Z,2.30
2022-08-29T16:01:42.758Z,2.05
2022-08-29T16:04:14.838Z,2.35
2022-08-29T16:06:56.260Z,2.53
2022-08-29T16:09:30.813Z,2.30
2022-08-29T16:12:16.705Z,2.10
2022-08-29T16:15:01.431Z,2.97
2022-08-29T16:17:41.315Z,2.13
2022-08-29T16:20:13.684Z,2.70
2022-08-29T16:22:43.684Z,2.60
2022-08-29T16:25:12.779Z,3.15
2022-08-29T16:27:41.247Z,2.63
2022-08-29T16:30:11.251Z,2.80
2022-08-29T16:32:39.697Z,2.50
2022-08-29T16:35:09.177Z,2.72
2022-08-29T16:37:37.881Z,2.42
2022-08-29T16:40:08.703Z,2.40
2022-08-29T16:42:38.443Z,2.40
2022-08-29T16:45:08.536Z,2.63
2022-08-29T16:47:47.124Z,2.70
2022-08-29T16:50:24.670Z,2.40
2022-08-29T16:55:57.220Z,2.42
2022-08-29T16:58:45.993Z,2.63
2022-08-29T17:01:46.657Z,2.72
2022-08-29T17:04:35.764Z,2.70
2022-08-29T17:07:26.638Z,2.25
2022-08-29T17:09:53.723Z,2.50
2022-08-29T17:12:21.851Z,2.50
2022-08-29T17:14:54.924Z,2.45
2022-08-29T17:17:23.690Z,2.60
2022-08-29T17:19:51.741Z,2.50
2022-08-29T17:22:19.945Z,2.75
2022-08-29T17:24:47.939Z,4.80
2022-08-29T17:27:21.162Z,2.60
2022-08-29T17:29:50.860Z,2.60
2022-08-29T17:32:18.921Z,2.43
2022-08-29T17:34:48.010Z,2.57
2022-08-29T17:37:16.183Z,2.77
2022-08-29T17:39:44.079Z,2.17
2022-08-29T17:42:12.872Z,2.53
2022-08-29T17:44:42.196Z,2.90
2022-08-29T17:47:11.585Z,2.22
2022-08-29T17:49:39.566Z,2.70
2022-08-29T17:52:07.531Z,2.97
2022-08-29T17:54:35.804Z,2.77
2022-08-29T17:57:03.794Z,2.93
2022-08-29T17:59:34.468Z,2.60
2022-08-29T18:02:02.860Z,2.30
2022-08-29T18:04:32.169Z,2.57
2022-08-29T18:10:02.262Z,2.30
2022-08-29T18:15:52.663Z,2.60
2022-08-29T18:18:47.411Z,2.60
2022-08-29T18:21:33.508Z,2.60
2022-08-29T18:24:07.907Z,2.40
2022-08-29T18:27:08.001Z,2.50
2022-08-29T18:36:02.685Z,2.57
2022-08-29T18:47:25.821Z,2.17
2022-08-29T18:59:40.100Z,1.80
2022-08-29T19:03:10.244Z,2.30
2022-08-29T19:09:22.911Z,2.00
2022-08-29T19:12:07.762Z,2.43
2022-08-29T19:14:56.459Z,2.13
2022-08-29T19:20:55.332Z,2.03
2022-08-29T19:23:24.587Z,1.90
2022-08-29T19:25:56.454Z,2.13
2022-08-29T19:28:27.136Z,2.10
2022-08-29T19:31:05.122Z,2.20
2022-08-29T19:33:37.595Z,1.87
2022-08-29T19:36:10.225Z,2.03
2022-08-29T19:38:55.638Z,2.10
2022-08-29T19:41:25.149Z,2.37
2022-08-29T19:43:53.664Z,2.20
2022-08-29T19:46:25.497Z,2.30
2022-08-29T19:49:45.260Z,2.10
2022-08-29T19:52:13.294Z,1.73
2022-08-29T19:54:49.108Z,2.43
2022-08-29T19:57:25.164Z,2.30
2022-08-29T19:59:53.572Z,1.97
2022-08-29T20:02:23.282Z,2.30
2022-08-29T20:04:51.956Z,2.13
2022-08-29T20:07:22.928Z,2.23
2022-08-29T20:09:55.992Z,1.80
2022-08-29T20:12:44.048Z,2.23
2022-08-29T20:15:14.020Z,2.23
2022-08-29T20:17:44.155Z,2.33
2022-08-29T20:20:15.548Z,2.30
2022-08-29T20:22:43.570Z,2.13
2022-08-29T20:25:12.309Z,2.20
2022-08-29T20:27:41.846Z,2.00
2022-08-29T20:30:13.660Z,1.70
2022-08-29T20:32:47.767Z,1.90
2022-08-29T20:35:37.599Z,2.37
2022-08-29T20:38:05.170Z,2.23
2022-08-29T20:40:34.157Z,2.10
2022-08-29T20:43:23.078Z,2.00
2022-08-29T20:45:52.008Z,2.47
2022-08-29T20:48:25.410Z,1.80
2022-08-29T20:51:00.836Z,1.90
2022-08-29T20:53:31.524Z,2.43
2022-08-29T20:56:01.467Z,2.07
2022-08-29T20:58:30.324Z,2.47
2022-08-29T21:00:59.882Z,2.60
2022-08-29T21:03:46.710Z,2.07
2022-08-29T21:06:19.204Z,2.17
2022-08-29T21:08:47.193Z,1.70
2022-08-29T21:11:24.210Z,2.20
2022-08-29T21:13:55.571Z,1.87
2022-08-29T21:16:23.937Z,1.87
2022-08-29T21:18:55.283Z,1.90
2022-08-29T21:21:26.125Z,1.77
2022-08-29T21:23:59.461Z,1.70
2022-08-29T21:26:27.690Z,1.67
2022-08-29T21:28:55.566Z,2.17
2022-08-29T21:31:23.481Z,2.03
2022-08-29T21:33:53.200Z,2.00
2022-08-29T21:36:25.025Z,2.03
2022-08-29T21:38:56.390Z,1.70
2022-08-29T21:41:25.077Z,1.77
2022-08-29T21:43:53.436Z,2.00
2022-08-29T21:46:24.107Z,2.03
2022-08-29T21:48:56.741Z,1.70
2022-08-29T21:51:25.377Z,1.70
2022-08-29T21:53:55.459Z,1.80
2022-08-29T21:56:24.793Z,1.67
2022-08-29T21:58:54.573Z,1.90
2022-08-29T22:01:26.748Z,1.90
2022-08-29T22:03:57.130Z,1.70
2022-08-29T22:06:27.697Z,1.63
2022-08-29T22:08:57.579Z,2.00
2022-08-29T22:11:37.550Z,1.70
2022-08-29T22:14:06.941Z,1.80
2022-08-29T22:16:35.391Z,2.23
2022-08-29T22:19:07.084Z,2.00
2022-08-29T22:21:37.434Z,1.70
2022-08-29T22:24:06.717Z,1.90
2022-08-29T22:26:35.996Z,2.20
2022-08-29T22:29:04.757Z,2.03
2022-08-29T22:31:32.884Z,2.00
2022-08-29T22:34:01.405Z,2.03
2022-08-29T22:36:34.758Z,2.10
2022-08-29T22:39:02.597Z,2.20
2022-08-29T22:41:31.178Z,1.80
2022-08-29T22:46:49.115Z,1.77
2022-08-29T22:49:17.975Z,2.23
2022-08-29T22:51:48.179Z,2.30
2022-08-29T22:54:33.496Z,2.00
2022-08-29T22:57:01.583Z,1.93
2022-08-29T22:59:29.480Z,1.80
2022-08-29T23:01:57.478Z,2.07
2022-08-29T23:04:25.445Z,1.87
2022-08-29T23:06:54.614Z,1.43
2022-08-29T23:09:22.740Z,2.00
2022-08-29T23:11:50.966Z,1.97
2022-08-29T23:14:20.574Z,1.97
2022-08-29T23:16:48.766Z,1.90
2022-08-29T23:19:16.693Z,1.90
2022-08-29T23:21:44.558Z,1.83
2022-08-29T23:24:13.862Z,1.70
2022-08-29T23:26:42.740Z,1.90
2022-08-29T23:29:10.706Z,2.13
2022-08-29T23:31:38.888Z,2.03
2022-08-29T23:34:07.632Z,2.00
2022-08-29T23:36:35.555Z,1.83
2022-08-29T23:39:05.990Z,2.00
2022-08-29T23:41:36.203Z,2.00
2022-08-29T23:44:04.575Z,1.93
2022-08-29T23:46:32.612Z,2.10
2022-08-29T23:49:00.598Z,2.30
2022-08-29T23:51:28.453Z,2.07
2022-08-29T23:53:57.362Z,2.30
2022-08-29T23:56:25.608Z,1.97
2022-08-29T23:58:55.825Z,1.83
